Weather History for KD55 - May, 2013

Change the Weather History Date:

Saturday, May 11, 2013

  Actual Average (KDVL) Record (KDVL)
Temperature  
Mean Temperature 38 °F -  
Max Temperature 46 °F 62 °F 89 °F (1987)
Min Temperature 28 °F 42 °F 26 °F (2005)
Degree Days  
Heating Degree Days 27    
Moisture  
Dew Point 24 °F    
Average Humidity 65    
Maximum Humidity 100    
Minimum Humidity 29    
Precipitation  
Precipitation 0.04 in - - ()
Sea Level Pressure  
Sea Level Pressure 30.27 in    
Wind  
Wind Speed 15 mph (North)    
Max Wind Speed 24 mph    
Max Gust Speed 33 mph    
Visibility 10 miles    
Events Rain    
Averages and records for this station are not official NWS values.
T = Trace of Precipitation, MM = Missing Value Source: NWS Daily Summary

Daily Weather History Graph

Daily Weather History Graph

Search for Another Location

Airport or City:

Trip Planner

Search our weather history database for the weather conditions in past years. The results will help you decide how hot, cold, wet, or windy it might be!

Date:

Astronomy

May. 11, 2013 Rise Set
Actual Time 5:57 AM CDT 9:03 PM CDT
Civil Twilight 5:20 AM CDT 9:40 PM CDT
Nautical Twilight 4:31 AM CDT 10:29 PM CDT
Astronomical Twilight 3:31 AM CDT 11:30 PM CDT
Moon 7:03 AM CDT (5/11) 10:47 PM CDT (5/11)
Length of Visible Light 16h 20m
Length of Day
15h 06m
Waxing Crescent, 3% of the Moon is Illuminated
May 11
Waxing Crescent
May 17
First Quarter
May 24
Full
May 31
Last Quarter
Jun 8
New

Hourly Weather History & Observations

Time (CDT) Temp. Windchill Dew Point Humidity Pressure Visibility Wind Dir Wind Speed Gust Speed Precip Events Conditions
12:15 AM 32.0 °F 24.8 °F 32.0 °F 100% 30.20 in 10.0 mi NW 8.1 mph - N/A   Partly Cloudy
12:35 AM 32.0 °F 24.2 °F 32.0 °F 100% 30.20 in 10.0 mi NW 9.2 mph - N/A   Scattered Clouds
12:55 AM 32.0 °F 22.5 °F 32.0 °F 100% 30.20 in 10.0 mi NNW 12.7 mph - N/A   Mostly Cloudy
1:15 AM 32.0 °F 21.2 °F 32.0 °F 100% 30.21 in 10.0 mi NNW 16.1 mph - N/A   Overcast
1:35 AM 33.8 °F 23.5 °F 32.0 °F 93% 30.21 in 10.0 mi NNW 16.1 mph - N/A   Mostly Cloudy
1:55 AM 32.0 °F 20.5 °F 32.0 °F 100% 30.22 in 10.0 mi NNW 18.4 mph 24.2 mph N/A   Partly Cloudy
2:15 AM 32.0 °F 21.2 °F 32.0 °F 100% 30.22 in 10.0 mi NNW 16.1 mph - N/A   Clear
2:35 AM 32.0 °F 20.8 °F 32.0 °F 100% 30.22 in 10.0 mi NNW 17.3 mph - N/A   Scattered Clouds
2:55 AM 33.8 °F 21.9 °F 32.0 °F 93% 30.23 in 10.0 mi North 21.9 mph 25.3 mph N/A   Mostly Cloudy
3:15 AM 32.0 °F 21.6 °F 32.0 °F 100% 30.24 in 2.5 mi North 15.0 mph - 0.04 in Rain Light Rain
3:35 AM 32.0 °F 23.6 °F 32.0 °F 100% 30.24 in 10.0 mi NNW 10.4 mph - 0.04 in   Partly Cloudy
3:55 AM 32.0 °F 21.2 °F 32.0 °F 100% 30.24 in 10.0 mi NNW 16.1 mph - 0.04 in   Clear
4:15 AM 32.0 °F 21.2 °F 32.0 °F 100% 30.25 in 10.0 mi NNW 16.1 mph - N/A   Clear
4:35 AM 32.0 °F 21.2 °F 32.0 °F 100% 30.25 in 10.0 mi NNW 16.1 mph - N/A   Clear
4:55 AM 32.0 °F 21.6 °F 32.0 °F 100% 30.26 in 10.0 mi NNW 15.0 mph - N/A   Clear
5:15 AM 30.2 °F 19.3 °F 30.2 °F 100% 30.26 in 10.0 mi NNW 15.0 mph 21.9 mph N/A   Clear
5:35 AM 30.2 °F 18.9 °F 28.4 °F 93% 30.26 in 10.0 mi NNW 16.1 mph - N/A   Clear
5:55 AM 30.2 °F 18.5 °F 28.4 °F 93% 30.27 in 10.0 mi NNW 17.3 mph 23.0 mph N/A   Clear
6:15 AM 30.2 °F 18.5 °F 28.4 °F 93% 30.27 in 10.0 mi NNW 17.3 mph 25.3 mph N/A   Clear
6:35 AM 30.2 °F 18.9 °F 28.4 °F 93% 30.28 in 10.0 mi NNW 16.1 mph 23.0 mph N/A   Clear
6:55 AM 30.2 °F 18.1 °F 28.4 °F 93% 30.29 in 10.0 mi NNW 18.4 mph - N/A   Clear
7:15 AM 32.0 °F 21.2 °F 28.4 °F 87% 30.30 in 10.0 mi NNW 16.1 mph 24.2 mph N/A   Clear
7:35 AM 32.0 °F 20.8 °F 28.4 °F 87% 30.30 in 10.0 mi NNW 17.3 mph 20.7 mph N/A   Clear
7:55 AM 32.0 °F 19.5 °F 26.6 °F 80% 30.30 in 10.0 mi NNW 21.9 mph 29.9 mph N/A   Clear
8:15 AM 32.0 °F 18.9 °F 26.6 °F 80% 30.31 in 10.0 mi NNW 24.2 mph 27.6 mph N/A   Clear
8:35 AM 32.0 °F 19.8 °F 24.8 °F 75% 30.31 in 10.0 mi North 20.7 mph 32.2 mph N/A   Clear
8:55 AM 32.0 °F 19.5 °F 26.6 °F 80% 30.31 in 10.0 mi NNW 21.9 mph 28.8 mph N/A   Clear
9:15 AM 33.8 °F 21.6 °F 26.6 °F 75% 30.32 in 10.0 mi North 23.0 mph 27.6 mph N/A   Partly Cloudy
9:35 AM 35.6 °F 24.8 °F 26.6 °F 70% 30.32 in 10.0 mi North 19.6 mph 26.5 mph N/A   Scattered Clouds
9:55 AM 35.6 °F 24.2 °F 26.6 °F 70% 30.33 in 10.0 mi NNW 21.9 mph 27.6 mph N/A   Scattered Clouds
10:15 AM 37.4 °F 26.9 °F 26.6 °F 65% 30.32 in 10.0 mi North 20.7 mph 25.3 mph N/A   Mostly Cloudy
10:35 AM 37.4 °F 26.6 °F 24.8 °F 60% 30.32 in 10.0 mi North 21.9 mph 27.6 mph N/A   Scattered Clouds
10:55 AM 37.4 °F 26.6 °F 24.8 °F 60% 30.32 in 10.0 mi North 21.9 mph 31.1 mph N/A   Partly Cloudy
11:15 AM 39.2 °F 29.6 °F 24.8 °F 56% 30.32 in 10.0 mi North 19.6 mph 25.3 mph N/A   Clear
11:35 AM 39.2 °F 29.3 °F 23.0 °F 52% 30.32 in 10.0 mi North 20.7 mph 29.9 mph N/A   Clear
11:55 AM 41.0 °F 31.1 °F 19.4 °F 42% 30.31 in 10.0 mi North 23.0 mph 28.8 mph N/A   Clear
12:15 PM 41.0 °F 31.9 °F 19.4 °F 42% 30.31 in 10.0 mi NNW 19.6 mph 26.5 mph N/A   Clear
12:35 PM 41.0 °F 31.6 °F 19.4 °F 42% 30.31 in 10.0 mi North 20.7 mph 26.5 mph N/A   Clear
12:55 PM 42.8 °F 35.1 °F 17.6 °F 36% 30.31 in 10.0 mi NNW 16.1 mph 33.4 mph N/A   Clear
1:15 PM 42.8 °F 35.8 °F 17.6 °F 36% 30.32 in 10.0 mi NNW 13.8 mph 27.6 mph N/A   Clear
1:35 PM 44.6 °F 38.1 °F 19.4 °F 37% 30.31 in 10.0 mi NW 13.8 mph 23.0 mph N/A   Clear
1:55 PM 44.6 °F 37.2 °F 19.4 °F 37% 30.30 in 10.0 mi NNW 17.3 mph 25.3 mph N/A   Clear
2:15 PM 44.6 °F 36.4 °F 17.6 °F 34% 30.29 in 10.0 mi NNW 20.7 mph 27.6 mph N/A   Clear
2:35 PM 44.6 °F 36.9 °F 17.6 °F 34% 30.29 in 10.0 mi North 18.4 mph 26.5 mph N/A   Clear
2:55 PM 44.6 °F 37.2 °F 17.6 °F 34% 30.29 in 10.0 mi North 17.3 mph 27.6 mph N/A   Clear
3:15 PM 46.4 °F 39.2 °F 15.8 °F 29% 30.28 in 10.0 mi North 18.4 mph 25.3 mph N/A   Clear
3:35 PM 46.4 °F 39.2 °F 19.4 °F 34% 30.28 in 10.0 mi NNW 18.4 mph 23.0 mph N/A   Clear
4:15 PM 46.4 °F 39.8 °F 17.6 °F 32% 30.27 in 10.0 mi North 16.1 mph 21.9 mph N/A   Clear
4:35 PM 46.4 °F 41.1 °F 17.6 °F 32% 30.27 in 10.0 mi NNW 11.5 mph 23.0 mph N/A   Clear
4:55 PM 46.4 °F 39.8 °F 17.6 °F 32% 30.26 in 10.0 mi North 16.1 mph 23.0 mph N/A   Clear
5:15 PM 46.4 °F 41.1 °F 17.6 °F 32% 30.26 in 10.0 mi NW 11.5 mph 20.7 mph N/A   Clear
5:35 PM 46.4 °F 40.7 °F 15.8 °F 29% 30.26 in 10.0 mi North 12.7 mph 23.0 mph N/A   Clear
5:55 PM 46.4 °F 41.1 °F 15.8 °F 29% 30.26 in 10.0 mi NNW 11.5 mph - N/A   Clear
6:15 PM 46.4 °F 40.1 °F 15.8 °F 29% 30.26 in 10.0 mi North 15.0 mph - N/A   Clear
6:35 PM 46.4 °F 40.7 °F 15.8 °F 29% 30.26 in 10.0 mi NNW 12.7 mph - N/A   Clear
6:55 PM 46.4 °F 40.7 °F 17.6 °F 32% 30.25 in 10.0 mi NNE 12.7 mph 18.4 mph N/A   Clear
7:15 PM 44.6 °F 38.4 °F 17.6 °F 34% 30.25 in 10.0 mi NNE 12.7 mph - N/A   Clear
7:35 PM 44.6 °F 38.1 °F 17.6 °F 34% 30.25 in 10.0 mi North 13.8 mph - N/A   Clear
7:55 PM 42.8 °F 37.5 °F 19.4 °F 39% 30.25 in 10.0 mi NNE 9.2 mph - N/A   Clear
8:15 PM 41.0 °F 34.3 °F 19.4 °F 42% 30.24 in 10.0 mi NNE 11.5 mph - N/A   Clear
8:35 PM 41.0 °F 35.2 °F 19.4 °F 42% 30.24 in 10.0 mi NE 9.2 mph - N/A   Clear
9:15 PM 37.4 °F 30.8 °F 23.0 °F 56% 30.24 in 10.0 mi ENE 9.2 mph - N/A   Clear
9:35 PM 35.6 °F 28.6 °F 24.8 °F 65% 30.24 in 10.0 mi ENE 9.2 mph - N/A   Clear
9:55 PM 35.6 °F 29.9 °F 23.0 °F 60% 30.24 in 10.0 mi ENE 6.9 mph - N/A   Clear
10:15 PM 33.8 °F 26.4 °F 23.0 °F 65% 30.24 in 10.0 mi ENE 9.2 mph - N/A   Clear
10:35 PM 33.8 °F 27.0 °F 23.0 °F 65% 30.24 in 10.0 mi ENE 8.1 mph - N/A   Clear
10:55 PM 32.0 °F 24.8 °F 23.0 °F 69% 30.24 in 10.0 mi ENE 8.1 mph - N/A   Clear
11:15 PM 32.0 °F 25.6 °F 23.0 °F 69% 30.24 in 10.0 mi ENE 6.9 mph - N/A   Clear
11:35 PM 32.0 °F 27.5 °F 23.0 °F 69% 30.24 in 10.0 mi East 4.6 mph - N/A   Clear
11:55 PM 28.4 °F 24.6 °F 19.4 °F 69% 30.24 in 10.0 mi ESE 3.5 mph - N/A   Clear